createdAt,value
2022-11-15T00:01:26.969Z,7.90
2022-11-15T00:04:12.304Z,5.03
2022-11-15T00:06:57.511Z,5.22
2022-11-15T00:09:45.987Z,3.60
2022-11-15T00:12:31.681Z,6.10
2022-11-15T00:15:17.162Z,5.25
2022-11-15T00:18:02.358Z,4.45
2022-11-15T00:20:47.608Z,4.15
2022-11-15T00:23:34.685Z,4.97
2022-11-15T00:26:20.040Z,6.63
2022-11-15T00:29:05.143Z,4.22
2022-11-15T00:31:50.338Z,7.25
2022-11-15T00:34:35.544Z,9.43
2022-11-15T00:37:20.926Z,6.07
2022-11-15T00:40:06.960Z,6.65
2022-11-15T00:42:52.227Z,6.47
2022-11-15T00:45:37.650Z,5.13
2022-11-15T00:48:23.075Z,5.85
2022-11-15T00:51:08.609Z,6.43
2022-11-15T00:53:53.808Z,4.53
2022-11-15T00:56:39.098Z,3.83
2022-11-15T00:59:24.173Z,5.82
2022-11-15T01:02:09.270Z,6.35
2022-11-15T01:04:54.556Z,5.22
2022-11-15T01:07:39.720Z,7.15
2022-11-15T01:10:26.771Z,5.90
2022-11-15T01:13:11.894Z,4.97
2022-11-15T01:15:56.963Z,4.72
2022-11-15T01:18:42.256Z,3.55
2022-11-15T01:21:31.985Z,4.13
2022-11-15T01:24:18.066Z,2.58
2022-11-15T01:27:03.251Z,4.93
2022-11-15T01:29:48.633Z,6.57
2022-11-15T01:32:33.987Z,5.13
2022-11-15T01:35:19.386Z,5.57
2022-11-15T01:38:04.556Z,3.90
2022-11-15T01:40:50.287Z,2.58
2022-11-15T01:43:37.492Z,2.58
2022-11-15T01:46:22.710Z,3.40
2022-11-15T01:49:15.537Z,4.07
2022-11-15T01:52:02.761Z,3.33
2022-11-15T01:54:51.816Z,3.05
2022-11-15T01:57:37.342Z,7.00
2022-11-15T02:00:22.559Z,3.22
2022-11-15T02:03:07.960Z,3.80
2022-11-15T02:05:54.135Z,3.88
2022-11-15T02:08:39.336Z,5.70
2022-11-15T02:11:24.632Z,8.00
2022-11-15T02:14:11.257Z,5.85
2022-11-15T02:17:02.690Z,4.35
2022-11-15T02:20:12.824Z,2.53
2022-11-15T02:23:07.193Z,3.70
2022-11-15T02:26:29.654Z,2.42
2022-11-15T02:32:41.995Z,4.57
2022-11-15T02:35:43.894Z,4.93
2022-11-15T02:38:54.354Z,2.83
2022-11-15T02:41:50.085Z,3.17
2022-11-15T02:44:41.017Z,3.10
2022-11-15T02:47:28.855Z,3.97
2022-11-15T02:50:19.503Z,3.13
2022-11-15T02:53:04.711Z,2.60
2022-11-15T02:55:52.088Z,2.53
2022-11-15T02:58:52.412Z,2.35
2022-11-15T03:02:08.359Z,3.83
2022-11-15T03:05:18.742Z,2.70
2022-11-15T03:08:23.526Z,2.65
2022-11-15T03:11:16.550Z,3.10
2022-11-15T03:14:24.410Z,2.95
2022-11-15T03:17:12.798Z,3.28
2022-11-15T03:20:01.336Z,2.63
2022-11-15T03:22:49.246Z,2.53
2022-11-15T03:25:37.610Z,3.50
2022-11-15T03:28:45.213Z,3.13
2022-11-15T03:31:51.524Z,3.00
2022-11-15T03:34:58.468Z,2.75
2022-11-15T03:37:52.454Z,2.40
2022-11-15T03:41:02.236Z,2.83
2022-11-15T03:43:50.474Z,2.25
2022-11-15T03:46:46.220Z,2.85
2022-11-15T03:49:35.307Z,2.33
2022-11-15T03:52:22.760Z,3.88
2022-11-15T03:55:11.759Z,2.03
2022-11-15T03:58:00.046Z,3.08
2022-11-15T04:00:45.185Z,2.63
2022-11-15T04:03:30.997Z,3.28
2022-11-15T04:06:16.291Z,3.72
2022-11-15T04:09:01.696Z,3.47
2022-11-15T04:11:46.829Z,4.88
2022-11-15T04:14:31.991Z,2.20
2022-11-15T04:17:17.135Z,3.60
2022-11-15T04:20:25.472Z,3.50
2022-11-15T04:23:35.769Z,3.30
2022-11-15T04:26:23.694Z,2.42
2022-11-15T04:29:27.431Z,2.50
2022-11-15T04:32:12.829Z,2.88
2022-11-15T04:34:58.042Z,2.28
2022-11-15T04:37:48.971Z,1.90
2022-11-15T04:40:35.510Z,2.45
2022-11-15T04:43:20.458Z,2.83
2022-11-15T04:46:05.493Z,2.08
2022-11-15T04:48:56.955Z,1.83
2022-11-15T04:51:43.823Z,3.63
2022-11-15T04:54:29.165Z,2.45
2022-11-15T04:57:15.065Z,5.40
2022-11-15T05:00:00.255Z,2.53
2022-11-15T05:03:03.928Z,2.10
2022-11-15T05:05:49.279Z,2.40
2022-11-15T05:08:34.722Z,15.07
2022-11-15T05:11:20.019Z,8.55
2022-11-15T05:14:05.443Z,9.05
2022-11-15T05:16:50.952Z,5.78
2022-11-15T05:19:36.177Z,4.07
2022-11-15T05:22:22.502Z,3.17
2022-11-15T05:25:08.284Z,2.30
2022-11-15T05:27:53.615Z,3.63
2022-11-15T05:30:38.836Z,3.95
2022-11-15T05:33:24.921Z,4.72
2022-11-15T05:36:35.029Z,3.28
2022-11-15T05:39:20.149Z,2.58
2022-11-15T05:42:14.402Z,7.38
2022-11-15T05:45:00.767Z,4.25
2022-11-15T05:47:47.925Z,5.05
2022-11-15T05:50:34.054Z,9.02
2022-11-15T05:53:23.764Z,6.55
2022-11-15T05:56:10.487Z,6.35
2022-11-15T05:58:59.686Z,4.88
2022-11-15T06:01:45.313Z,8.43
2022-11-15T06:04:30.495Z,3.78
2022-11-15T06:07:15.919Z,3.15
2022-11-15T06:10:01.228Z,3.90
2022-11-15T06:12:46.653Z,4.32
2022-11-15T06:15:34.526Z,4.05
2022-11-15T06:18:19.461Z,6.40
2022-11-15T06:21:05.495Z,2.95
2022-11-15T06:23:50.781Z,2.88
2022-11-15T06:26:36.052Z,2.65
2022-11-15T06:29:21.435Z,3.53
2022-11-15T06:32:06.943Z,2.75
2022-11-15T06:34:51.961Z,3.80
2022-11-15T06:37:37.114Z,2.60
2022-11-15T06:40:22.657Z,3.00
2022-11-15T06:43:08.545Z,2.30
2022-11-15T06:45:53.778Z,3.78
2022-11-15T06:48:39.385Z,2.45
2022-11-15T06:51:24.352Z,3.92
2022-11-15T06:54:09.526Z,4.03
2022-11-15T06:56:54.875Z,6.93
2022-11-15T06:59:40.805Z,3.00
2022-11-15T07:02:26.474Z,3.70
2022-11-15T07:05:12.384Z,3.40
2022-11-15T07:07:58.902Z,5.68
2022-11-15T07:10:43.889Z,2.45
2022-11-15T07:13:30.880Z,3.40
2022-11-15T07:16:16.577Z,5.75
2022-11-15T07:19:01.880Z,4.93
2022-11-15T07:21:47.675Z,4.05
2022-11-15T07:24:32.946Z,3.58
2022-11-15T07:27:18.130Z,2.97
2022-11-15T07:30:04.328Z,2.88
2022-11-15T07:32:56.813Z,3.35
2022-11-15T07:35:43.501Z,3.92
2022-11-15T07:38:29.875Z,3.50
2022-11-15T07:41:15.394Z,2.75
2022-11-15T07:44:01.303Z,3.10
2022-11-15T07:46:46.561Z,3.05
2022-11-15T07:49:31.774Z,5.32
2022-11-15T07:52:17.092Z,5.70
2022-11-15T07:55:02.464Z,2.38
2022-11-15T07:57:47.768Z,2.22
2022-11-15T08:00:33.181Z,3.03
2022-11-15T08:03:18.542Z,1.95
2022-11-15T08:06:05.118Z,1.48
2022-11-15T08:08:50.124Z,1.65
2022-11-15T08:11:35.317Z,3.00
2022-11-15T08:14:22.937Z,1.90
2022-11-15T08:17:07.887Z,3.35
2022-11-15T08:19:53.057Z,3.22
2022-11-15T08:22:41.209Z,2.60
2022-11-15T08:25:27.579Z,2.22
2022-11-15T08:28:20.238Z,3.15
2022-11-15T08:31:06.086Z,1.88
2022-11-15T08:33:51.532Z,2.33
2022-11-15T08:36:44.592Z,1.77
2022-11-15T08:39:31.517Z,2.45
2022-11-15T08:42:19.956Z,2.17
2022-11-15T08:45:05.861Z,2.15
2022-11-15T08:47:54.139Z,2.28
2022-11-15T08:50:39.690Z,2.00
2022-11-15T08:53:25.126Z,3.13
2022-11-15T08:56:12.293Z,1.95
2022-11-15T08:58:57.403Z,1.70
2022-11-15T09:01:42.643Z,1.50
2022-11-15T09:04:27.850Z,1.15
2022-11-15T09:07:15.003Z,2.33
2022-11-15T09:10:00.129Z,1.75
2022-11-15T09:12:45.251Z,2.03
2022-11-15T09:15:30.930Z,2.20
2022-11-15T09:18:15.995Z,2.17
2022-11-15T09:21:01.510Z,2.28
2022-11-15T09:23:46.543Z,1.83
2022-11-15T09:26:31.796Z,1.25
2022-11-15T09:29:17.150Z,1.20
2022-11-15T09:32:03.047Z,2.00
2022-11-15T09:34:48.302Z,1.33
2022-11-15T09:37:33.887Z,1.38
2022-11-15T09:40:21.400Z,2.88
2022-11-15T09:43:39.113Z,2.30
2022-11-15T09:46:33.263Z,1.50
2022-11-15T09:49:20.362Z,0.98
2022-11-15T09:52:12.895Z,1.55
2022-11-15T09:54:58.211Z,3.60
2022-11-15T09:57:33.546Z,1.00
2022-11-15T10:00:43.951Z,1.33
2022-11-15T10:03:05.554Z,1.77
2022-11-15T10:05:37.235Z,1.13
2022-11-15T10:08:13.097Z,2.13
2022-11-15T10:10:48.840Z,1.17
2022-11-15T10:13:24.005Z,1.08
2022-11-15T10:15:54.402Z,1.02
2022-11-15T10:18:35.836Z,2.53
2022-11-15T10:21:38.888Z,1.45
2022-11-15T10:24:12.663Z,1.98
2022-11-15T10:26:46.540Z,1.92
2022-11-15T10:29:19.314Z,1.90
2022-11-15T10:31:45.871Z,1.45
2022-11-15T10:34:21.568Z,1.67
2022-11-15T10:36:59.515Z,2.70
2022-11-15T10:39:26.392Z,2.00
2022-11-15T10:41:53.160Z,2.88
2022-11-15T10:44:23.202Z,2.15
2022-11-15T10:47:07.958Z,2.97
2022-11-15T10:49:35.890Z,2.53
2022-11-15T10:52:21.405Z,2.53
2022-11-15T10:55:06.198Z,1.67
2022-11-15T10:57:37.513Z,1.58
2022-11-15T11:00:05.902Z,1.20
2022-11-15T11:02:47.696Z,4.40
2022-11-15T11:05:39.949Z,2.67
2022-11-15T11:08:14.039Z,1.42
2022-11-15T11:10:58.555Z,1.45
2022-11-15T11:13:40.048Z,1.38
2022-11-15T11:16:15.761Z,0.88
2022-11-15T11:19:16.491Z,0.65
2022-11-15T11:21:58.301Z,0.90
2022-11-15T11:25:06.079Z,1.27
2022-11-15T11:27:44.714Z,1.40
2022-11-15T11:30:30.042Z,2.13
2022-11-15T11:33:13.775Z,2.28
2022-11-15T11:35:58.711Z,0.85
2022-11-15T11:38:51.304Z,1.17
2022-11-15T11:42:00.098Z,1.30
2022-11-15T11:44:44.576Z,2.70
2022-11-15T11:47:22.426Z,0.70
2022-11-15T11:49:57.143Z,0.80
2022-11-15T11:52:39.482Z,0.85
2022-11-15T11:55:23.992Z,2.70
2022-11-15T11:58:13.164Z,2.67
2022-11-15T12:00:45.630Z,1.77
2022-11-15T12:03:33.643Z,1.98
2022-11-15T12:06:11.790Z,2.13
2022-11-15T12:08:54.371Z,1.27
2022-11-15T12:11:39.604Z,3.85
2022-11-15T12:14:17.900Z,0.50
2022-11-15T12:16:44.603Z,1.67
2022-11-15T12:19:11.187Z,0.70
2022-11-15T12:21:46.912Z,1.52
2022-11-15T12:24:21.372Z,1.00
2022-11-15T12:27:24.907Z,0.40
2022-11-15T12:29:57.479Z,1.13
2022-11-15T12:32:27.835Z,5.20
2022-11-15T12:34:55.833Z,1.23
2022-11-15T12:37:38.604Z,0.93
2022-11-15T12:40:05.103Z,0.95
2022-11-15T12:42:31.639Z,1.05
2022-11-15T12:45:00.128Z,2.05
2022-11-15T12:47:27.786Z,0.98
2022-11-15T12:49:57.588Z,2.53
2022-11-15T12:52:24.160Z,1.80
2022-11-15T12:54:56.615Z,1.50
2022-11-15T12:57:29.293Z,1.35
2022-11-15T13:00:02.888Z,2.95
2022-11-15T13:02:41.371Z,2.05
2022-11-15T13:05:20.384Z,2.13
2022-11-15T13:07:50.053Z,2.20
2022-11-15T13:10:16.613Z,1.52
2022-11-15T13:12:45.907Z,6.07
2022-11-15T13:15:12.454Z,3.08
2022-11-15T13:17:48.935Z,6.03
2022-11-15T13:20:15.533Z,1.55
2022-11-15T13:23:01.911Z,2.67
2022-11-15T13:25:40.581Z,2.80
2022-11-15T13:28:16.203Z,7.15
2022-11-15T13:30:56.348Z,2.78
2022-11-15T13:33:36.755Z,4.63
2022-11-15T13:36:16.402Z,3.83
2022-11-15T13:38:43.566Z,2.60
2022-11-15T13:41:21.192Z,1.90
2022-11-15T13:43:50.337Z,3.17
2022-11-15T13:46:26.057Z,5.53
2022-11-15T13:49:01.704Z,4.95
2022-11-15T13:51:31.175Z,1.08
2022-11-15T13:54:10.319Z,3.53
2022-11-15T13:56:37.781Z,2.28
2022-11-15T13:59:22.772Z,1.77
2022-11-15T14:01:51.751Z,0.70
2022-11-15T14:04:22.887Z,1.50
2022-11-15T14:06:53.956Z,1.10
2022-11-15T14:09:38.105Z,2.63
2022-11-15T14:12:25.305Z,2.88
2022-11-15T14:14:52.115Z,2.42
2022-11-15T14:17:34.073Z,2.40
2022-11-15T14:20:00.861Z,1.88
2022-11-15T14:22:31.210Z,2.03
2022-11-15T14:25:19.816Z,1.17
2022-11-15T14:28:24.946Z,2.58
2022-11-15T14:30:58.366Z,2.70
2022-11-15T14:33:36.457Z,3.15
2022-11-15T14:36:12.232Z,7.60
2022-11-15T14:38:38.774Z,2.83
2022-11-15T14:41:06.696Z,3.05
2022-11-15T14:43:33.301Z,2.78
2022-11-15T14:46:00.280Z,2.70
2022-11-15T14:48:26.858Z,2.15
2022-11-15T14:50:53.415Z,1.77
2022-11-15T14:53:23.149Z,2.80
2022-11-15T14:55:50.034Z,2.10
2022-11-15T14:58:16.597Z,2.60
2022-11-15T15:00:43.300Z,2.97
2022-11-15T15:03:10.272Z,1.70
2022-11-15T15:05:42.491Z,1.80
2022-11-15T15:08:10.736Z,2.60
2022-11-15T15:10:42.982Z,4.38
2022-11-15T15:13:13.812Z,5.55
2022-11-15T15:15:40.378Z,2.60
2022-11-15T15:18:09.377Z,2.92
2022-11-15T15:20:39.184Z,2.22
2022-11-15T15:23:06.363Z,2.70
2022-11-15T15:25:35.808Z,2.17
2022-11-15T15:28:03.414Z,1.85
2022-11-15T15:30:31.174Z,1.50
2022-11-15T15:32:57.802Z,2.85
2022-11-15T15:35:27.451Z,4.63
2022-11-15T15:37:54.812Z,5.55
2022-11-15T15:40:23.970Z,4.35
2022-11-15T15:42:51.198Z,4.03
2022-11-15T15:45:20.362Z,3.08
2022-11-15T15:47:47.789Z,3.00
2022-11-15T15:50:27.974Z,1.95
2022-11-15T15:52:58.166Z,2.67
2022-11-15T15:55:25.893Z,2.97
2022-11-15T15:57:55.574Z,3.47
2022-11-15T16:00:26.474Z,3.50
2022-11-15T16:02:54.744Z,3.72
2022-11-15T16:05:22.604Z,2.90
2022-11-15T16:07:49.611Z,4.97
2022-11-15T16:10:23.986Z,2.83
2022-11-15T16:12:50.759Z,7.15
2022-11-15T16:15:18.388Z,4.15
2022-11-15T16:17:50.203Z,4.20
2022-11-15T16:20:33.766Z,3.42
2022-11-15T16:23:07.284Z,4.22
2022-11-15T16:25:40.905Z,5.68
2022-11-15T16:28:18.720Z,2.97
2022-11-15T16:30:45.386Z,7.90
2022-11-15T16:33:11.986Z,8.35
2022-11-15T16:35:38.571Z,7.43
2022-11-15T16:38:05.127Z,8.20
2022-11-15T16:40:36.078Z,7.70
2022-11-15T16:43:04.475Z,10.85
2022-11-15T16:45:31.910Z,9.70
2022-11-15T16:47:58.705Z,5.70
2022-11-15T16:50:30.948Z,6.60
2022-11-15T16:52:59.147Z,11.23
2022-11-15T16:55:28.204Z,10.32
2022-11-15T16:57:57.926Z,7.68
2022-11-15T17:00:25.650Z,6.43
2022-11-15T17:02:53.370Z,9.30
2022-11-15T17:05:22.644Z,6.93
2022-11-15T17:07:52.329Z,5.55
2022-11-15T17:10:18.945Z,10.23
2022-11-15T17:12:45.534Z,8.48
2022-11-15T17:15:13.557Z,7.35
2022-11-15T17:17:41.017Z,6.22
2022-11-15T17:20:14.317Z,7.70
2022-11-15T17:22:40.903Z,8.50
2022-11-15T17:25:07.740Z,5.40
2022-11-15T17:27:34.404Z,9.95
2022-11-15T17:30:00.981Z,9.07
2022-11-15T17:32:27.538Z,10.63
2022-11-15T17:34:54.114Z,9.57
2022-11-15T17:37:20.656Z,12.38
2022-11-15T17:39:47.256Z,9.55
2022-11-15T17:42:13.834Z,10.55
2022-11-15T17:44:40.450Z,8.75
2022-11-15T17:47:08.472Z,11.02
2022-11-15T17:49:39.333Z,6.45
2022-11-15T17:52:06.090Z,9.10
2022-11-15T17:54:32.631Z,8.55
2022-11-15T17:56:59.344Z,8.65
2022-11-15T17:59:26.216Z,7.90
2022-11-15T18:01:53.984Z,7.07
2022-11-15T18:04:21.145Z,6.45
2022-11-15T18:06:50.744Z,9.93
2022-11-15T18:09:17.354Z,9.30
2022-11-15T18:11:46.417Z,7.32
2022-11-15T18:14:15.393Z,8.32
2022-11-15T18:16:42.680Z,7.78
2022-11-15T18:19:13.303Z,7.40
2022-11-15T18:22:01.341Z,8.67
2022-11-15T18:24:36.684Z,6.72
2022-11-15T18:27:05.175Z,8.48
2022-11-15T18:29:33.286Z,7.80
2022-11-15T18:31:59.985Z,10.48
2022-11-15T18:34:31.988Z,8.95
2022-11-15T18:36:59.285Z,9.63
2022-11-15T18:39:25.858Z,8.57
2022-11-15T18:41:52.539Z,10.60
2022-11-15T18:44:19.502Z,6.82
2022-11-15T18:46:46.286Z,8.18
2022-11-15T18:49:14.809Z,6.85
2022-11-15T18:51:42.101Z,6.70
2022-11-15T18:54:13.893Z,7.57
2022-11-15T18:59:08.619Z,7.18
2022-11-15T19:01:40.803Z,7.75
2022-11-15T19:04:19.051Z,10.32
2022-11-15T19:06:47.855Z,16.40
2022-11-15T19:09:16.860Z,6.18
2022-11-15T19:11:44.747Z,7.05
2022-11-15T19:14:14.004Z,6.70
2022-11-15T19:16:49.971Z,6.30
2022-11-15T19:19:28.314Z,7.03
2022-11-15T19:21:55.228Z,11.70
2022-11-15T19:24:21.857Z,10.00
2022-11-15T19:26:48.478Z,7.90
2022-11-15T19:29:15.133Z,25.48
2022-11-15T19:31:42.048Z,42.25
2022-11-15T19:34:08.749Z,34.00
2022-11-15T19:36:38.763Z,27.98
2022-11-15T19:39:09.772Z,12.77
2022-11-15T19:41:38.467Z,9.68
2022-11-15T19:44:06.318Z,9.13
2022-11-15T19:46:33.330Z,7.50
2022-11-15T19:49:00.070Z,10.93
2022-11-15T19:51:29.345Z,9.88
2022-11-15T19:53:58.240Z,6.13
2022-11-15T19:56:24.944Z,11.50
2022-11-15T19:58:53.530Z,11.80
2022-11-15T20:01:25.154Z,11.57
2022-11-15T20:03:57.741Z,13.30
2022-11-15T20:06:38.210Z,10.55
2022-11-15T20:09:04.827Z,10.38
2022-11-15T20:11:31.633Z,5.40
2022-11-15T20:13:59.565Z,7.95
2022-11-15T20:16:26.571Z,6.10
2022-11-15T20:18:53.644Z,8.48
2022-11-15T20:21:21.478Z,5.50
2022-11-15T20:23:48.530Z,8.35
2022-11-15T20:26:15.864Z,7.97
2022-11-15T20:28:44.654Z,8.27
2022-11-15T20:31:12.358Z,5.32
2022-11-15T20:33:39.234Z,6.05
2022-11-15T20:36:07.726Z,7.82
2022-11-15T20:38:34.896Z,6.38
2022-11-15T20:41:01.829Z,5.70
2022-11-15T20:43:28.458Z,5.35
2022-11-15T20:45:55.437Z,6.35
2022-11-15T20:48:22.355Z,5.47
2022-11-15T20:50:49.150Z,5.47
2022-11-15T20:53:18.073Z,6.88
2022-11-15T20:55:47.905Z,8.25
2022-11-15T20:58:15.797Z,9.63
2022-11-15T21:00:44.641Z,7.32
2022-11-15T21:03:12.589Z,7.13
2022-11-15T21:05:40.946Z,6.93
2022-11-15T21:08:08.681Z,9.50
2022-11-15T21:10:53.569Z,8.60
2022-11-15T21:13:20.482Z,6.40
2022-11-15T21:15:47.231Z,8.00
2022-11-15T21:18:14.403Z,6.00
2022-11-15T21:20:41.436Z,10.82
2022-11-15T21:23:08.444Z,5.95
2022-11-15T21:25:35.117Z,7.47
2022-11-15T21:28:01.819Z,5.55
2022-11-15T21:30:28.568Z,7.38
2022-11-15T21:32:55.161Z,8.00
2022-11-15T21:35:22.581Z,7.22
2022-11-15T21:37:55.018Z,4.43
2022-11-15T21:40:23.458Z,4.90
2022-11-15T21:42:50.094Z,6.60
2022-11-15T21:45:16.742Z,6.90
2022-11-15T21:47:45.976Z,5.43
2022-11-15T21:50:12.857Z,5.25
2022-11-15T21:52:40.599Z,4.10
2022-11-15T21:55:07.958Z,4.93
2022-11-15T21:57:34.625Z,5.10
2022-11-15T22:00:19.497Z,6.82
2022-11-15T22:02:46.034Z,5.05
2022-11-15T22:05:12.583Z,5.72
2022-11-15T22:07:39.136Z,6.80
2022-11-15T22:10:06.339Z,4.90
2022-11-15T22:12:32.868Z,5.93
2022-11-15T22:14:59.522Z,4.55
2022-11-15T22:17:46.120Z,5.95
2022-11-15T22:20:42.466Z,4.03
2022-11-15T22:23:00.137Z,4.10
2022-11-15T22:25:26.836Z,4.55
2022-11-15T22:27:54.002Z,4.75
2022-11-15T22:30:21.450Z,6.50
2022-11-15T22:32:48.210Z,4.93
2022-11-15T22:35:15.602Z,6.63
2022-11-15T22:37:42.430Z,5.90
2022-11-15T22:40:09.904Z,5.45
2022-11-15T22:42:36.577Z,6.75
2022-11-15T22:45:03.756Z,6.72
2022-11-15T22:47:30.412Z,9.85
2022-11-15T22:49:57.064Z,6.40
2022-11-15T22:52:23.716Z,6.85
2022-11-15T22:54:50.359Z,4.97
2022-11-15T22:57:16.982Z,5.65
2022-11-15T22:59:43.679Z,5.43
2022-11-15T23:02:10.347Z,5.90
2022-11-15T23:04:36.997Z,7.68
2022-11-15T23:07:03.682Z,6.28
2022-11-15T23:09:30.446Z,5.57
2022-11-15T23:12:15.823Z,4.55
2022-11-15T23:14:42.451Z,6.45
2022-11-15T23:17:09.128Z,6.15
2022-11-15T23:19:35.802Z,5.13
2022-11-15T23:22:21.009Z,6.03
2022-11-15T23:24:47.861Z,5.20
2022-11-15T23:27:19.745Z,4.80
2022-11-15T23:30:05.525Z,5.72
2022-11-15T23:32:51.181Z,3.95
2022-11-15T23:35:18.072Z,4.97
2022-11-15T23:37:44.971Z,5.97
2022-11-15T23:40:12.294Z,5.60
2022-11-15T23:42:38.955Z,5.45
2022-11-15T23:45:06.334Z,8.40
2022-11-15T23:47:32.976Z,8.25
2022-11-15T23:49:59.581Z,10.10
2022-11-15T23:52:26.288Z,7.78
2022-11-15T23:54:55.518Z,5.45
2022-11-15T23:57:23.186Z,4.63
2022-11-15T23:59:49.857Z,5.78
